createdAt,value
2022-12-19T00:00:36.759Z,16.90
2022-12-19T00:03:04.771Z,18.00
2022-12-19T00:05:32.707Z,18.48
2022-12-19T00:08:02.432Z,18.38
2022-12-19T00:10:41.367Z,18.00
2022-12-19T00:13:09.354Z,18.98
2022-12-19T00:15:37.532Z,19.73
2022-12-19T00:18:05.712Z,17.67
2022-12-19T00:20:33.514Z,17.17
2022-12-19T00:23:01.318Z,20.55
2022-12-19T00:25:29.233Z,19.52
2022-12-19T00:27:59.633Z,17.67
2022-12-19T00:30:27.464Z,18.35
2022-12-19T00:32:55.551Z,18.15
2022-12-19T00:35:23.340Z,19.25
2022-12-19T00:37:51.143Z,18.85
2022-12-19T00:40:19.064Z,18.02
2022-12-19T00:42:53.260Z,20.35
2022-12-19T00:45:22.804Z,17.77
2022-12-19T00:47:50.650Z,18.67
2022-12-19T00:50:18.575Z,18.95
2022-12-19T00:52:46.460Z,19.17
2022-12-19T00:55:18.714Z,19.80
2022-12-19T00:57:47.220Z,18.35
2022-12-19T01:00:16.604Z,19.05
2022-12-19T01:02:46.145Z,17.70
2022-12-19T01:05:14.040Z,18.85
2022-12-19T01:07:42.036Z,18.90
2022-12-19T01:10:10.731Z,17.23
2022-12-19T01:12:46.718Z,19.17
2022-12-19T01:15:18.262Z,18.50
2022-12-19T01:17:47.908Z,12.82
2022-12-19T01:20:19.373Z,17.38
2022-12-19T01:22:54.020Z,17.92
2022-12-19T01:25:21.840Z,18.38
2022-12-19T01:27:49.667Z,18.08
2022-12-19T01:30:17.564Z,18.52
2022-12-19T01:32:47.511Z,17.48
2022-12-19T01:35:21.519Z,19.00
2022-12-19T01:37:50.570Z,18.35
2022-12-19T01:40:18.487Z,18.50
2022-12-19T01:42:46.449Z,16.73
2022-12-19T01:45:34.873Z,17.83
2022-12-19T01:48:16.455Z,17.02
2022-12-19T01:51:00.576Z,18.27
2022-12-19T01:53:33.943Z,18.42
2022-12-19T01:56:09.398Z,18.35
2022-12-19T01:58:39.254Z,19.05
2022-12-19T02:01:07.507Z,18.35
2022-12-19T02:03:38.507Z,18.73
2022-12-19T02:06:07.901Z,18.17
2022-12-19T02:08:37.227Z,17.58
2022-12-19T02:11:05.140Z,18.70
2022-12-19T02:13:33.348Z,18.33
2022-12-19T02:16:06.330Z,16.08
2022-12-19T02:18:44.092Z,19.00
2022-12-19T02:21:34.037Z,19.08
2022-12-19T02:24:26.040Z,19.67
2022-12-19T02:27:02.228Z,19.60
2022-12-19T02:30:07.023Z,19.20
2022-12-19T02:32:47.596Z,18.75
2022-12-19T02:35:26.687Z,18.15
2022-12-19T02:38:04.967Z,18.90
2022-12-19T02:40:40.363Z,19.40
2022-12-19T02:43:09.978Z,19.08
2022-12-19T02:45:40.472Z,20.33
2022-12-19T02:48:10.719Z,19.10
2022-12-19T02:50:40.821Z,20.10
2022-12-19T02:53:10.609Z,20.33
2022-12-19T02:55:45.159Z,18.40
2022-12-19T02:58:43.305Z,19.40
2022-12-19T03:01:24.875Z,18.77
2022-12-19T03:04:04.810Z,19.90
2022-12-19T03:06:37.995Z,19.15
2022-12-19T03:09:15.921Z,19.48
2022-12-19T03:11:46.840Z,19.05
2022-12-19T03:14:20.217Z,18.85
2022-12-19T03:16:48.422Z,18.30
2022-12-19T03:19:17.824Z,20.08
2022-12-19T03:21:48.765Z,19.50
2022-12-19T03:24:18.809Z,20.25
2022-12-19T03:26:51.627Z,19.15
2022-12-19T03:29:24.567Z,20.50
2022-12-19T03:31:53.244Z,18.42
2022-12-19T03:34:26.039Z,20.40
2022-12-19T03:36:57.916Z,19.40
2022-12-19T03:39:27.804Z,19.67
2022-12-19T03:42:15.016Z,19.73
2022-12-19T03:44:44.637Z,19.83
2022-12-19T03:47:20.227Z,20.05
2022-12-19T03:49:50.249Z,21.42
2022-12-19T03:52:27.573Z,19.55
2022-12-19T03:55:04.513Z,19.27
2022-12-19T03:57:36.851Z,20.55
2022-12-19T04:00:08.008Z,21.45
2022-12-19T04:02:37.336Z,20.47
2022-12-19T04:05:09.602Z,20.80
2022-12-19T04:07:38.684Z,20.10
2022-12-19T04:10:08.957Z,19.55
2022-12-19T04:12:41.685Z,20.88
2022-12-19T04:15:10.987Z,20.15
2022-12-19T04:17:43.239Z,19.48
2022-12-19T04:20:15.224Z,19.75
2022-12-19T04:22:50.817Z,19.77
2022-12-19T04:25:26.347Z,19.83
2022-12-19T04:28:01.331Z,19.92
2022-12-19T04:32:58.282Z,20.25
2022-12-19T04:35:27.532Z,20.83
2022-12-19T04:37:55.416Z,19.63
2022-12-19T04:40:23.261Z,19.63
2022-12-19T04:42:51.098Z,20.85
2022-12-19T04:45:19.145Z,21.33
2022-12-19T04:47:47.113Z,19.52
2022-12-19T04:50:15.161Z,19.48
2022-12-19T04:52:44.306Z,21.25
2022-12-19T04:55:12.161Z,19.67
2022-12-19T04:57:39.953Z,20.52
2022-12-19T05:00:09.409Z,20.92
2022-12-19T05:02:39.316Z,19.30
2022-12-19T05:05:07.589Z,20.58
2022-12-19T05:07:35.527Z,19.77
2022-12-19T05:10:05.714Z,19.77
2022-12-19T05:12:33.550Z,21.35
2022-12-19T05:15:01.384Z,20.33
2022-12-19T05:17:29.218Z,21.65
2022-12-19T05:19:57.101Z,19.45
2022-12-19T05:22:24.941Z,19.73
2022-12-19T05:24:52.762Z,20.58
2022-12-19T05:27:22.026Z,20.13
2022-12-19T05:29:49.836Z,20.08
2022-12-19T05:32:17.899Z,20.98
2022-12-19T05:34:45.779Z,20.98
2022-12-19T05:37:13.580Z,20.52
2022-12-19T05:39:41.406Z,20.52
2022-12-19T05:42:12.282Z,20.88
2022-12-19T05:44:41.921Z,21.80
2022-12-19T05:47:09.745Z,20.33
2022-12-19T05:49:39.938Z,19.50
2022-12-19T05:52:07.792Z,20.58
2022-12-19T05:54:35.693Z,19.73
2022-12-19T05:57:03.537Z,20.85
2022-12-19T05:59:31.382Z,19.90
2022-12-19T06:02:00.698Z,19.40
2022-12-19T06:04:29.954Z,20.48
2022-12-19T06:06:58.054Z,20.58
2022-12-19T06:09:26.012Z,19.85
2022-12-19T06:11:53.821Z,20.08
2022-12-19T06:14:22.108Z,20.13
2022-12-19T06:16:50.819Z,19.80
2022-12-19T06:19:21.495Z,20.10
2022-12-19T06:21:49.406Z,18.63
2022-12-19T06:24:17.583Z,20.00
2022-12-19T06:26:45.649Z,19.13
2022-12-19T06:29:13.680Z,19.38
2022-12-19T06:31:41.589Z,19.08
2022-12-19T06:34:10.941Z,19.65
2022-12-19T06:36:42.605Z,21.05
2022-12-19T06:39:13.771Z,19.08
2022-12-19T06:41:59.346Z,18.42
2022-12-19T06:44:27.164Z,17.67
2022-12-19T06:46:55.108Z,19.13
2022-12-19T06:49:22.897Z,19.23
2022-12-19T06:51:52.067Z,19.45
2022-12-19T06:54:19.920Z,19.08
2022-12-19T06:56:47.740Z,19.23
2022-12-19T06:59:17.208Z,19.25
2022-12-19T07:01:55.390Z,18.55
2022-12-19T07:04:29.331Z,19.77
2022-12-19T07:06:59.115Z,18.55
2022-12-19T07:09:28.685Z,19.33
2022-12-19T07:11:56.503Z,20.17
2022-12-19T07:14:25.100Z,18.38
2022-12-19T07:16:54.752Z,19.08
2022-12-19T07:19:23.652Z,18.77
2022-12-19T07:21:51.614Z,19.67
2022-12-19T07:24:20.912Z,19.30
2022-12-19T07:26:48.886Z,19.05
2022-12-19T07:29:16.715Z,18.90
2022-12-19T07:31:44.621Z,18.60
2022-12-19T07:34:12.483Z,19.33
2022-12-19T07:36:40.663Z,19.05
2022-12-19T07:39:08.563Z,18.15
2022-12-19T07:41:39.401Z,19.50
2022-12-19T07:44:07.834Z,18.95
2022-12-19T07:46:35.945Z,17.45
2022-12-19T07:49:03.810Z,18.30
2022-12-19T07:51:31.776Z,19.13
2022-12-19T07:53:59.890Z,18.92
2022-12-19T07:56:28.303Z,18.23
2022-12-19T07:58:57.701Z,18.67
2022-12-19T08:01:28.207Z,18.95
2022-12-19T08:03:58.094Z,18.25
2022-12-19T08:06:27.321Z,18.63
2022-12-19T08:08:56.030Z,16.75
2022-12-19T08:11:27.289Z,18.52
2022-12-19T08:13:57.446Z,17.88
2022-12-19T08:16:27.704Z,17.90
2022-12-19T08:18:56.517Z,17.05
2022-12-19T08:21:25.140Z,16.35
2022-12-19T08:23:53.713Z,17.80
2022-12-19T08:26:25.735Z,17.27
2022-12-19T08:28:54.098Z,13.85
2022-12-19T08:31:25.338Z,16.50
2022-12-19T08:33:53.942Z,16.85
2022-12-19T08:36:22.507Z,18.48
2022-12-19T08:38:51.204Z,18.02
2022-12-19T08:41:19.754Z,17.02
2022-12-19T08:43:50.009Z,17.52
2022-12-19T08:46:18.762Z,17.10
2022-12-19T08:48:48.370Z,16.85
2022-12-19T08:51:17.530Z,16.98
2022-12-19T08:53:47.201Z,16.45
2022-12-19T08:56:17.384Z,18.35
2022-12-19T08:58:45.939Z,16.73
2022-12-19T09:01:16.033Z,16.60
2022-12-19T09:04:01.181Z,16.45
2022-12-19T09:06:33.972Z,17.17
2022-12-19T09:09:01.862Z,17.25
2022-12-19T09:11:30.145Z,16.25
2022-12-19T09:13:58.648Z,17.17
2022-12-19T09:16:28.631Z,16.55
2022-12-19T09:18:58.684Z,16.17
2022-12-19T09:21:31.314Z,17.20
2022-12-19T09:24:07.724Z,16.23
2022-12-19T09:26:38.088Z,16.25
2022-12-19T09:29:12.232Z,16.20
2022-12-19T09:31:51.470Z,16.70
2022-12-19T09:34:24.874Z,16.98
2022-12-19T09:37:01.043Z,16.42
2022-12-19T09:39:30.316Z,15.68
2022-12-19T09:42:15.774Z,17.80
2022-12-19T09:44:58.931Z,16.13
2022-12-19T09:47:29.434Z,16.33
2022-12-19T09:49:59.632Z,18.42
2022-12-19T09:52:33.633Z,17.60
2022-12-19T09:55:13.779Z,16.75
2022-12-19T09:57:52.015Z,18.10
2022-12-19T10:00:21.680Z,17.08
2022-12-19T10:02:54.696Z,17.77
2022-12-19T10:06:51.782Z,17.42
2022-12-19T10:08:19.530Z,17.25
2022-12-19T10:12:38.829Z,18.23
2022-12-19T10:14:19.371Z,17.95
2022-12-19T10:17:22.593Z,17.38
2022-12-19T10:19:55.121Z,18.77
2022-12-19T10:22:28.745Z,18.10
2022-12-19T10:25:16.409Z,15.98
2022-12-19T10:27:59.610Z,16.75
2022-12-19T10:30:31.995Z,18.10
2022-12-19T10:33:09.399Z,18.70
2022-12-19T10:35:46.150Z,17.55
2022-12-19T10:38:23.208Z,18.67
2022-12-19T10:40:56.313Z,19.23
2022-12-19T10:43:44.042Z,17.60
2022-12-19T10:46:16.503Z,19.20
2022-12-19T10:48:44.401Z,17.65
2022-12-19T10:51:14.636Z,16.95
2022-12-19T10:53:42.611Z,18.85
2022-12-19T10:56:23.364Z,16.92
2022-12-19T10:58:57.550Z,18.55
2022-12-19T11:01:28.387Z,18.02
2022-12-19T11:04:14.808Z,17.85
2022-12-19T11:07:03.878Z,18.17
2022-12-19T11:09:36.748Z,19.00
2022-12-19T11:17:35.466Z,18.73
2022-12-19T11:20:34.015Z,17.67
2022-12-19T11:24:30.023Z,18.60
2022-12-19T11:29:33.478Z,18.70
2022-12-19T11:29:42.359Z,18.80
2022-12-19T11:30:49.022Z,17.58
2022-12-19T11:32:42.793Z,16.45
2022-12-19T11:35:24.298Z,16.25
2022-12-19T11:37:56.168Z,16.33
2022-12-19T11:40:33.262Z,17.15
2022-12-19T11:43:42.437Z,17.23
2022-12-19T11:46:01.166Z,17.33
2022-12-19T11:48:37.345Z,16.60
2022-12-19T11:51:13.518Z,17.85
2022-12-19T11:53:50.543Z,16.23
2022-12-19T11:56:22.721Z,16.35
2022-12-19T11:58:54.033Z,16.85
2022-12-19T12:01:36.286Z,18.02
2022-12-19T12:04:22.347Z,17.75
2022-12-19T12:06:53.339Z,17.25
2022-12-19T12:14:17.482Z,17.58
2022-12-19T12:20:10.262Z,17.92
2022-12-19T12:24:00.130Z,18.33
2022-12-19T12:31:16.859Z,16.88
2022-12-19T12:31:47.569Z,18.42
2022-12-19T12:31:50.449Z,18.40
2022-12-19T12:32:00.363Z,19.05
2022-12-19T12:35:33.273Z,20.38
2022-12-19T12:37:47.867Z,19.75
2022-12-19T12:39:24.247Z,18.60
2022-12-19T12:42:07.056Z,19.27
2022-12-19T12:44:43.107Z,20.63
2022-12-19T12:47:18.846Z,19.50
2022-12-19T12:49:51.295Z,19.88
2022-12-19T12:52:22.846Z,20.13
2022-12-19T12:54:52.541Z,21.27
2022-12-19T12:57:36.085Z,20.17
2022-12-19T13:00:22.786Z,19.63
2022-12-19T13:02:55.526Z,19.75
2022-12-19T13:05:41.396Z,18.65
2022-12-19T13:08:32.130Z,18.83
2022-12-19T13:11:02.444Z,17.80
2022-12-19T13:13:49.689Z,17.13
2022-12-19T13:16:52.997Z,18.42
2022-12-19T13:19:28.376Z,17.75
2022-12-19T13:22:18.514Z,17.50
2022-12-19T13:24:50.002Z,18.25
2022-12-19T13:27:35.576Z,19.13
2022-12-19T13:30:14.704Z,17.95
2022-12-19T13:33:09.034Z,18.75
2022-12-19T13:39:10.029Z,18.48
2022-12-19T13:40:02.474Z,18.38
2022-12-19T13:41:46.567Z,19.80
2022-12-19T13:44:20.334Z,19.50
2022-12-19T13:46:48.454Z,20.15
2022-12-19T13:49:20.432Z,20.27
2022-12-19T13:51:50.800Z,20.00
2022-12-19T13:54:23.862Z,19.85
2022-12-19T13:56:52.849Z,20.67
2022-12-19T13:59:23.278Z,21.48
2022-12-19T14:01:53.295Z,19.92
2022-12-19T14:04:29.960Z,18.08
2022-12-19T14:07:01.489Z,19.75
2022-12-19T14:11:26.253Z,14.45
2022-12-19T14:13:47.075Z,18.40
2022-12-19T14:15:34.066Z,17.42
2022-12-19T14:18:41.709Z,18.83
2022-12-19T14:22:05.735Z,19.58
2022-12-19T14:23:43.774Z,19.30
2022-12-19T14:28:19.824Z,20.75
2022-12-19T14:29:10.207Z,19.63
2022-12-19T14:32:00.100Z,19.98
2022-12-19T14:36:05.026Z,21.63
2022-12-19T14:37:37.120Z,19.90
2022-12-19T14:40:25.547Z,20.55
2022-12-19T14:44:00.461Z,21.98
2022-12-19T14:53:51.780Z,19.45
2022-12-19T14:54:00.856Z,20.85
2022-12-19T14:54:37.409Z,20.23
2022-12-19T14:56:16.347Z,22.02
2022-12-19T14:58:54.819Z,22.30
2022-12-19T15:01:25.877Z,21.25
2022-12-19T15:04:48.582Z,21.73
2022-12-19T15:10:58.654Z,21.10
2022-12-19T15:14:51.670Z,22.88
2022-12-19T15:15:45.732Z,24.25
2022-12-19T15:18:26.493Z,22.08
2022-12-19T15:20:56.731Z,23.23
2022-12-19T15:23:26.608Z,23.05
2022-12-19T15:26:05.096Z,23.88
2022-12-19T15:28:39.062Z,24.50
2022-12-19T15:31:14.021Z,23.13
2022-12-19T15:34:06.629Z,23.08
2022-12-19T15:36:29.850Z,23.20
2022-12-19T15:38:59.009Z,22.70
2022-12-19T15:41:26.883Z,23.60
2022-12-19T15:44:04.123Z,22.98
2022-12-19T15:46:33.385Z,23.05
2022-12-19T15:49:01.717Z,23.55
2022-12-19T15:51:29.510Z,25.23
2022-12-19T15:54:15.592Z,25.23
2022-12-19T15:56:49.966Z,25.17
2022-12-19T15:59:29.863Z,24.27
2022-12-19T16:02:04.110Z,24.95
2022-12-19T16:04:32.315Z,26.20
2022-12-19T16:07:00.379Z,23.63
2022-12-19T16:09:29.592Z,23.70
2022-12-19T16:11:58.068Z,24.02
2022-12-19T16:14:26.975Z,22.67
2022-12-19T16:16:56.307Z,25.48
2022-12-19T16:19:27.249Z,25.33
2022-12-19T16:21:56.629Z,25.90
2022-12-19T16:24:24.921Z,24.25
2022-12-19T16:26:57.034Z,23.30
2022-12-19T16:29:27.296Z,24.23
2022-12-19T16:31:55.922Z,22.77
2022-12-19T16:34:25.275Z,24.15
2022-12-19T16:36:53.591Z,24.20
2022-12-19T16:39:21.413Z,25.23
2022-12-19T16:41:49.409Z,25.15
2022-12-19T16:44:20.276Z,25.52
2022-12-19T16:46:50.837Z,25.65
2022-12-19T16:49:22.772Z,24.50
2022-12-19T16:51:50.885Z,24.67
2022-12-19T16:54:19.968Z,22.38
2022-12-19T16:56:49.732Z,22.45
2022-12-19T16:59:22.101Z,23.52
2022-12-19T17:01:50.836Z,22.77
2022-12-19T17:04:21.520Z,24.25
2022-12-19T17:06:50.060Z,23.05
2022-12-19T17:09:19.756Z,23.90
2022-12-19T17:11:49.943Z,23.58
2022-12-19T17:14:22.195Z,24.10
2022-12-19T17:19:25.124Z,22.23
2022-12-19T17:21:53.317Z,25.08
2022-12-19T17:24:21.226Z,23.63
2022-12-19T17:26:49.051Z,23.17
2022-12-19T17:29:16.876Z,24.15
2022-12-19T17:31:46.183Z,24.52
2022-12-19T17:34:18.592Z,23.13
2022-12-19T17:36:46.780Z,23.08
2022-12-19T17:39:20.615Z,22.70
2022-12-19T17:41:48.799Z,23.58
2022-12-19T17:44:16.629Z,23.70
2022-12-19T17:46:47.279Z,24.50
2022-12-19T17:49:18.045Z,25.30
2022-12-19T17:51:50.393Z,23.70
2022-12-19T17:54:18.226Z,25.25
2022-12-19T17:56:46.138Z,23.90
2022-12-19T17:59:14.366Z,27.13
2022-12-19T18:01:43.282Z,25.90
2022-12-19T18:04:15.966Z,29.25
2022-12-19T18:06:43.884Z,27.23
2022-12-19T18:09:19.604Z,29.02
2022-12-19T18:11:47.721Z,28.20
2022-12-19T18:14:16.537Z,28.23
2022-12-19T18:16:45.415Z,26.70
2022-12-19T18:19:19.692Z,25.70
2022-12-19T18:21:47.651Z,25.08
2022-12-19T18:24:16.250Z,27.50
2022-12-19T18:26:44.195Z,28.75
2022-12-19T18:29:12.403Z,29.30
2022-12-19T18:31:46.459Z,28.55
2022-12-19T18:34:21.596Z,30.15
2022-12-19T18:36:49.533Z,28.50
2022-12-19T18:39:21.288Z,26.88
2022-12-19T18:41:50.043Z,28.00
2022-12-19T18:44:18.061Z,25.35
2022-12-19T18:46:46.401Z,26.88
2022-12-19T18:49:15.677Z,25.70
2022-12-19T18:51:45.568Z,24.33
2022-12-19T18:54:15.044Z,25.40
2022-12-19T18:56:42.992Z,26.02
2022-12-19T18:59:11.040Z,26.40
2022-12-19T19:01:43.144Z,25.52
2022-12-19T19:06:48.489Z,23.83
2022-12-19T19:09:19.654Z,24.98
2022-12-19T19:11:47.516Z,23.65
2022-12-19T19:14:15.567Z,24.10
2022-12-19T19:16:43.525Z,23.88
2022-12-19T19:19:15.145Z,24.90
2022-12-19T19:21:43.272Z,25.38
2022-12-19T19:24:15.776Z,24.83
2022-12-19T19:26:45.185Z,25.33
2022-12-19T19:29:14.740Z,24.52
2022-12-19T19:31:46.627Z,24.38
2022-12-19T19:34:20.756Z,23.38
2022-12-19T19:36:53.646Z,23.52
2022-12-19T19:39:22.766Z,23.60
2022-12-19T19:41:52.209Z,23.00
2022-12-19T19:44:20.075Z,21.98
2022-12-19T19:46:48.648Z,21.52
2022-12-19T19:49:16.590Z,20.63
2022-12-19T19:51:44.428Z,23.75
2022-12-19T19:54:12.318Z,22.02
2022-12-19T19:56:40.178Z,23.92
2022-12-19T19:59:09.372Z,22.35
2022-12-19T20:01:37.593Z,21.48
2022-12-19T20:04:05.982Z,21.42
2022-12-19T20:06:33.938Z,22.48
2022-12-19T20:09:01.752Z,22.08
2022-12-19T20:11:29.547Z,21.42
2022-12-19T20:13:57.397Z,21.17
2022-12-19T20:16:26.581Z,21.50
2022-12-19T20:18:54.692Z,23.02
2022-12-19T20:21:23.910Z,23.52
2022-12-19T20:23:51.837Z,21.35
2022-12-19T20:26:20.151Z,21.73
2022-12-19T20:28:50.740Z,21.13
2022-12-19T20:31:19.609Z,20.27
2022-12-19T20:33:49.156Z,21.88
2022-12-19T20:36:17.779Z,21.25
2022-12-19T20:38:45.826Z,20.55
2022-12-19T20:41:14.011Z,21.67
2022-12-19T20:43:41.921Z,20.83
2022-12-19T20:46:12.482Z,22.60
2022-12-19T20:48:40.519Z,22.63
2022-12-19T20:51:10.310Z,22.23
2022-12-19T20:53:39.257Z,22.67
2022-12-19T20:56:09.127Z,23.80
2022-12-19T20:58:38.675Z,22.63
2022-12-19T21:01:08.889Z,22.45
2022-12-19T21:03:37.848Z,23.55
2022-12-19T21:06:07.275Z,22.58
2022-12-19T21:08:37.095Z,21.75
2022-12-19T21:11:06.525Z,21.85
2022-12-19T21:13:34.814Z,22.40
2022-12-19T21:16:06.972Z,19.88
2022-12-19T21:21:04.492Z,20.23
2022-12-19T21:23:32.550Z,21.92
2022-12-19T21:26:04.157Z,21.73
2022-12-19T21:28:32.082Z,21.15
2022-12-19T21:31:02.342Z,22.10
2022-12-19T21:33:30.827Z,22.25
2022-12-19T21:35:58.709Z,21.02
2022-12-19T21:38:26.545Z,22.67
2022-12-19T21:40:54.324Z,21.70
2022-12-19T21:43:23.491Z,22.25
2022-12-19T21:45:51.297Z,20.08
2022-12-19T21:48:19.189Z,21.85
2022-12-19T21:50:47.011Z,20.60
2022-12-19T21:53:15.367Z,20.33
2022-12-19T21:55:43.203Z,20.15
2022-12-19T21:58:11.008Z,20.88
2022-12-19T22:00:40.217Z,19.88
2022-12-19T22:03:15.805Z,19.65
2022-12-19T22:05:43.882Z,19.92
2022-12-19T22:08:12.055Z,19.98
2022-12-19T22:10:40.024Z,19.60
2022-12-19T22:13:07.833Z,19.98
2022-12-19T22:15:36.700Z,19.55
2022-12-19T22:18:05.949Z,18.42
2022-12-19T22:20:33.779Z,19.05
2022-12-19T22:23:01.594Z,19.20
2022-12-19T22:25:29.387Z,19.23
2022-12-19T22:27:57.567Z,18.52
2022-12-19T22:30:25.424Z,20.55
2022-12-19T22:32:53.388Z,18.38
2022-12-19T22:35:22.548Z,17.73
2022-12-19T22:37:50.455Z,18.85
2022-12-19T22:40:18.479Z,17.35
2022-12-19T22:42:46.277Z,17.45
2022-12-19T22:45:14.088Z,18.08
2022-12-19T22:47:42.975Z,18.42
2022-12-19T22:50:11.423Z,17.55
2022-12-19T22:52:40.638Z,18.20
2022-12-19T22:55:09.292Z,18.00
2022-12-19T22:57:37.118Z,18.42
2022-12-19T23:00:07.493Z,17.63
2022-12-19T23:02:35.518Z,16.27
2022-12-19T23:05:03.535Z,16.40
2022-12-19T23:07:31.357Z,17.17
2022-12-19T23:10:00.542Z,14.88
2022-12-19T23:12:28.746Z,15.02
2022-12-19T23:14:56.569Z,14.57
2022-12-19T23:17:24.380Z,15.55
2022-12-19T23:19:52.229Z,15.55
2022-12-19T23:22:21.059Z,15.23
2022-12-19T23:24:49.265Z,17.73
2022-12-19T23:27:18.444Z,17.52
2022-12-19T23:29:47.180Z,16.92
2022-12-19T23:32:15.181Z,17.23
2022-12-19T23:34:43.228Z,17.80
2022-12-19T23:37:12.131Z,17.75
2022-12-19T23:39:40.418Z,18.98
2022-12-19T23:42:08.262Z,17.90
2022-12-19T23:44:37.583Z,17.50
2022-12-19T23:47:05.522Z,16.73
2022-12-19T23:49:34.360Z,16.83
2022-12-19T23:52:02.417Z,16.23
2022-12-19T23:54:30.419Z,16.00
2022-12-19T23:56:58.326Z,15.00
2022-12-19T23:59:26.152Z,15.07
